sensor_id;sensor_type;location;lat;lon;timestamp;pressure;altitude;pressure_sealevel;temperature;humidity
15674;BME280;7937;48.090;16.212;2024-01-30T00:03:01;99476.22;;;-4.14;100.00
15674;BME280;7937;48.090;16.212;2024-01-30T00:06:04;99479.56;;;-4.25;100.00
15674;BME280;7937;48.090;16.212;2024-01-30T00:09:06;99478.94;;;-4.28;100.00
15674;BME280;7937;48.090;16.212;2024-01-30T00:12:08;99477.25;;;-4.29;100.00
15674;BME280;7937;48.090;16.212;2024-01-30T00:15:10;99479.88;;;-4.29;100.00
15674;BME280;7937;48.090;16.212;2024-01-30T00:18:12;99479.34;;;-4.34;100.00
15674;BME280;7937;48.090;16.212;2024-01-30T00:21:15;99471.53;;;-4.47;100.00
15674;BME280;7937;48.090;16.212;2024-01-30T00:24:17;99468.72;;;-4.44;100.00
15674;BME280;7937;48.090;16.212;2024-01-30T00:27:19;99477.16;;;-4.41;100.00
15674;BME280;7937;48.090;16.212;2024-01-30T00:30:21;99475.28;;;-4.38;100.00
15674;BME280;7937;48.090;16.212;2024-01-30T00:33:23;99475.72;;;-4.32;100.00
15674;BME280;7937;48.090;16.212;2024-01-30T00:36:26;99486.00;;;-4.30;100.00
15674;BME280;7937;48.090;16.212;2024-01-30T00:39:28;99487.91;;;-4.32;100.00
15674;BME280;7937;48.090;16.212;2024-01-30T00:42:30;99486.66;;;-4.27;100.00
15674;BME280;7937;48.090;16.212;2024-01-30T00:45:33;99489.16;;;-4.38;100.00
15674;BME280;7937;48.090;16.212;2024-01-30T00:48:35;99484.34;;;-4.31;100.00
15674;BME280;7937;48.090;16.212;2024-01-30T00:51:38;99482.66;;;-4.45;100.00
15674;BME280;7937;48.090;16.212;2024-01-30T00:54:40;99480.91;;;-4.45;100.00
15674;BME280;7937;48.090;16.212;2024-01-30T00:57:42;99486.00;;;-4.43;100.00
15674;BME280;7937;48.090;16.212;2024-01-30T01:00:46;99480.28;;;-4.35;100.00
15674;BME280;7937;48.090;16.212;2024-01-30T01:03:49;99477.34;;;-4.44;100.00
15674;BME280;7937;48.090;16.212;2024-01-30T01:06:51;99465.72;;;-4.51;100.00
15674;BME280;7937;48.090;16.212;2024-01-30T01:09:53;99465.50;;;-4.48;100.00
15674;BME280;7937;48.090;16.212;2024-01-30T01:12:56;99461.22;;;-4.49;100.00
15674;BME280;7937;48.090;16.212;2024-01-30T01:15:59;99450.94;;;-4.50;100.00
15674;BME280;7937;48.090;16.212;2024-01-30T01:19:01;99448.13;;;-4.47;100.00
15674;BME280;7937;48.090;16.212;2024-01-30T01:22:03;99456.53;;;-4.44;100.00
15674;BME280;7937;48.090;16.212;2024-01-30T01:25:06;99461.44;;;-4.52;100.00
15674;BME280;7937;48.090;16.212;2024-01-30T01:28:12;99451.03;;;-4.39;100.00
15674;BME280;7937;48.090;16.212;2024-01-30T01:31:14;99444.91;;;-4.51;100.00
15674;BME280;7937;48.090;16.212;2024-01-30T01:34:16;99445.94;;;-4.53;100.00
15674;BME280;7937;48.090;16.212;2024-01-30T01:37:19;99443.44;;;-4.55;100.00
15674;BME280;7937;48.090;16.212;2024-01-30T01:40:24;99424.81;;;-4.61;100.00
15674;BME280;7937;48.090;16.212;2024-01-30T01:43:27;99436.91;;;-4.48;100.00
15674;BME280;7937;48.090;16.212;2024-01-30T01:46:33;99432.09;;;-4.54;100.00
15674;BME280;7937;48.090;16.212;2024-01-30T01:49:35;99437.09;;;-4.51;100.00
15674;BME280;7937;48.090;16.212;2024-01-30T01:52:39;99434.50;;;-4.51;100.00
15674;BME280;7937;48.090;16.212;2024-01-30T01:55:42;99435.94;;;-4.34;100.00
15674;BME280;7937;48.090;16.212;2024-01-30T01:58:46;99429.91;;;-4.60;100.00
15674;BME280;7937;48.090;16.212;2024-01-30T02:01:50;99431.88;;;-4.63;100.00
15674;BME280;7937;48.090;16.212;2024-01-30T02:04:54;99433.34;;;-4.59;100.00
15674;BME280;7937;48.090;16.212;2024-01-30T02:07:56;99431.03;;;-4.64;100.00
15674;BME280;7937;48.090;16.212;2024-01-30T02:10:59;99430.03;;;-4.61;100.00
15674;BME280;7937;48.090;16.212;2024-01-30T02:14:05;99431.34;;;-4.69;100.00
15674;BME280;7937;48.090;16.212;2024-01-30T02:17:07;99420.03;;;-4.68;100.00
15674;BME280;7937;48.090;16.212;2024-01-30T02:20:09;99420.75;;;-4.65;100.00
15674;BME280;7937;48.090;16.212;2024-01-30T02:23:12;99420.13;;;-4.69;100.00
15674;BME280;7937;48.090;16.212;2024-01-30T02:26:15;99423.31;;;-4.78;100.00
15674;BME280;7937;48.090;16.212;2024-01-30T02:29:17;99418.06;;;-4.77;100.00
15674;BME280;7937;48.090;16.212;2024-01-30T02:32:19;99412.41;;;-4.83;100.00
15674;BME280;7937;48.090;16.212;2024-01-30T02:35:21;99413.69;;;-4.76;100.00
15674;BME280;7937;48.090;16.212;2024-01-30T02:38:24;99416.59;;;-4.81;100.00
15674;BME280;7937;48.090;16.212;2024-01-30T02:41:28;99422.00;;;-4.71;100.00
15674;BME280;7937;48.090;16.212;2024-01-30T02:44:30;99410.34;;;-4.65;100.00
15674;BME280;7937;48.090;16.212;2024-01-30T02:47:33;99415.03;;;-4.71;100.00
15674;BME280;7937;48.090;16.212;2024-01-30T02:50:35;99414.31;;;-4.73;100.00
15674;BME280;7937;48.090;16.212;2024-01-30T02:53:37;99411.56;;;-4.84;100.00
15674;BME280;7937;48.090;16.212;2024-01-30T02:56:39;99408.91;;;-4.82;100.00
15674;BME280;7937;48.090;16.212;2024-01-30T02:59:41;99407.31;;;-4.85;100.00
15674;BME280;7937;48.090;16.212;2024-01-30T03:02:43;99413.78;;;-4.65;100.00
15674;BME280;7937;48.090;16.212;2024-01-30T03:05:45;99414.84;;;-4.55;100.00
15674;BME280;7937;48.090;16.212;2024-01-30T03:08:48;99405.88;;;-4.76;100.00
15674;BME280;7937;48.090;16.212;2024-01-30T03:11:50;99411.38;;;-4.81;100.00
15674;BME280;7937;48.090;16.212;2024-01-30T03:14:52;99408.38;;;-4.75;100.00
15674;BME280;7937;48.090;16.212;2024-01-30T03:17:54;99398.81;;;-4.87;100.00
15674;BME280;7937;48.090;16.212;2024-01-30T03:20:56;99399.09;;;-4.91;100.00
15674;BME280;7937;48.090;16.212;2024-01-30T03:23:58;99389.84;;;-4.96;100.00
15674;BME280;7937;48.090;16.212;2024-01-30T03:27:01;99386.94;;;-4.91;100.00
15674;BME280;7937;48.090;16.212;2024-01-30T03:30:04;99407.84;;;-4.80;100.00
15674;BME280;7937;48.090;16.212;2024-01-30T03:33:07;99398.50;;;-4.70;100.00
15674;BME280;7937;48.090;16.212;2024-01-30T03:36:10;99386.81;;;-4.89;100.00
15674;BME280;7937;48.090;16.212;2024-01-30T03:39:13;99393.50;;;-4.85;100.00
15674;BME280;7937;48.090;16.212;2024-01-30T03:42:15;99390.25;;;-4.89;100.00
15674;BME280;7937;48.090;16.212;2024-01-30T03:45:17;99387.66;;;-4.89;100.00
15674;BME280;7937;48.090;16.212;2024-01-30T03:48:21;99390.25;;;-4.89;100.00
15674;BME280;7937;48.090;16.212;2024-01-30T03:51:23;99368.22;;;-4.96;100.00
15674;BME280;7937;48.090;16.212;2024-01-30T03:54:25;99390.47;;;-4.92;100.00
15674;BME280;7937;48.090;16.212;2024-01-30T03:57:27;99393.38;;;-4.97;100.00
15674;BME280;7937;48.090;16.212;2024-01-30T04:00:30;99386.72;;;-5.01;100.00
15674;BME280;7937;48.090;16.212;2024-01-30T04:03:32;99389.63;;;-5.05;100.00
15674;BME280;7937;48.090;16.212;2024-01-30T04:06:34;99388.19;;;-4.97;100.00
15674;BME280;7937;48.090;16.212;2024-01-30T04:09:38;99402.94;;;-4.97;100.00
15674;BME280;7937;48.090;16.212;2024-01-30T04:12:40;99392.84;;;-4.89;100.00
15674;BME280;7937;48.090;16.212;2024-01-30T04:15:42;99400.47;;;-4.73;100.00
15674;BME280;7937;48.090;16.212;2024-01-30T04:18:44;99396.81;;;-4.96;100.00
15674;BME280;7937;48.090;16.212;2024-01-30T04:21:47;99402.09;;;-4.98;100.00
15674;BME280;7937;48.090;16.212;2024-01-30T04:24:49;99406.69;;;-5.01;100.00
15674;BME280;7937;48.090;16.212;2024-01-30T04:27:51;99397.53;;;-4.94;100.00
15674;BME280;7937;48.090;16.212;2024-01-30T04:30:54;99396.06;;;-4.98;100.00
15674;BME280;7937;48.090;16.212;2024-01-30T04:33:56;99397.75;;;-4.97;100.00
15674;BME280;7937;48.090;16.212;2024-01-30T04:36:58;99392.97;;;-4.90;100.00
15674;BME280;7937;48.090;16.212;2024-01-30T04:40:00;99402.19;;;-4.99;100.00
15674;BME280;7937;48.090;16.212;2024-01-30T04:43:03;99395.44;;;-5.02;100.00
15674;BME280;7937;48.090;16.212;2024-01-30T04:46:05;99400.84;;;-5.05;100.00
15674;BME280;7937;48.090;16.212;2024-01-30T04:49:07;99394.63;;;-5.02;100.00
15674;BME280;7937;48.090;16.212;2024-01-30T04:52:10;99401.78;;;-5.06;100.00
15674;BME280;7937;48.090;16.212;2024-01-30T04:55:12;99406.22;;;-5.08;100.00
15674;BME280;7937;48.090;16.212;2024-01-30T04:58:14;99402.50;;;-5.04;100.00
15674;BME280;7937;48.090;16.212;2024-01-30T05:01:17;99394.59;;;-5.15;100.00
15674;BME280;7937;48.090;16.212;2024-01-30T05:04:19;99410.63;;;-4.96;100.00
15674;BME280;7937;48.090;16.212;2024-01-30T05:07:22;99399.91;;;-5.04;100.00
15674;BME280;7937;48.090;16.212;2024-01-30T05:10:24;99403.31;;;-5.03;100.00
15674;BME280;7937;48.090;16.212;2024-01-30T05:13:26;99402.41;;;-5.02;100.00
15674;BME280;7937;48.090;16.212;2024-01-30T05:16:29;99402.78;;;-5.08;100.00
15674;BME280;7937;48.090;16.212;2024-01-30T05:19:31;99391.09;;;-5.01;100.00
15674;BME280;7937;48.090;16.212;2024-01-30T05:22:33;99389.25;;;-5.26;100.00
15674;BME280;7937;48.090;16.212;2024-01-30T05:25:35;99405.69;;;-5.13;100.00
15674;BME280;7937;48.090;16.212;2024-01-30T05:28:37;99411.72;;;-5.12;100.00
15674;BME280;7937;48.090;16.212;2024-01-30T05:31:40;99405.41;;;-5.08;100.00
15674;BME280;7937;48.090;16.212;2024-01-30T05:34:42;99418.69;;;-5.13;100.00
15674;BME280;7937;48.090;16.212;2024-01-30T05:37:44;99411.72;;;-5.12;100.00
15674;BME280;7937;48.090;16.212;2024-01-30T05:40:46;99414.13;;;-5.09;100.00
15674;BME280;7937;48.090;16.212;2024-01-30T05:43:48;99401.53;;;-5.15;100.00
15674;BME280;7937;48.090;16.212;2024-01-30T05:46:51;99407.97;;;-5.21;100.00
15674;BME280;7937;48.090;16.212;2024-01-30T05:49:53;99415.78;;;-5.21;100.00
15674;BME280;7937;48.090;16.212;2024-01-30T05:52:55;99408.16;;;-4.97;100.00
15674;BME280;7937;48.090;16.212;2024-01-30T05:55:57;99409.63;;;-5.20;100.00
15674;BME280;7937;48.090;16.212;2024-01-30T05:58:59;99416.34;;;-5.30;100.00
15674;BME280;7937;48.090;16.212;2024-01-30T06:02:01;99409.59;;;-5.33;100.00
15674;BME280;7937;48.090;16.212;2024-01-30T06:05:04;99415.81;;;-5.35;100.00
15674;BME280;7937;48.090;16.212;2024-01-30T06:08:06;99418.41;;;-5.35;100.00
15674;BME280;7937;48.090;16.212;2024-01-30T06:11:11;99414.28;;;-5.52;100.00
15674;BME280;7937;48.090;16.212;2024-01-30T06:14:14;99429.09;;;-5.40;100.00
15674;BME280;7937;48.090;16.212;2024-01-30T06:17:16;99434.00;;;-5.35;100.00
15674;BME280;7937;48.090;16.212;2024-01-30T06:20:18;99430.63;;;-5.50;100.00
15674;BME280;7937;48.090;16.212;2024-01-30T06:23:20;99433.50;;;-5.55;100.00
15674;BME280;7937;48.090;16.212;2024-01-30T06:26:22;99407.56;;;-5.69;100.00
15674;BME280;7937;48.090;16.212;2024-01-30T06:29:25;99429.00;;;-5.38;100.00
15674;BME280;7937;48.090;16.212;2024-01-30T06:32:28;99432.00;;;-5.45;100.00
15674;BME280;7937;48.090;16.212;2024-01-30T06:35:30;99440.84;;;-5.34;100.00
15674;BME280;7937;48.090;16.212;2024-01-30T06:38:32;99407.25;;;-5.50;100.00
15674;BME280;7937;48.090;16.212;2024-01-30T06:41:35;99444.19;;;-5.32;100.00
15674;BME280;7937;48.090;16.212;2024-01-30T06:44:37;99444.63;;;-5.26;100.00
15674;BME280;7937;48.090;16.212;2024-01-30T06:47:39;99440.34;;;-5.00;100.00
15674;BME280;7937;48.090;16.212;2024-01-30T06:50:41;99438.97;;;-5.05;100.00
15674;BME280;7937;48.090;16.212;2024-01-30T06:53:43;99444.88;;;-5.16;100.00
15674;BME280;7937;48.090;16.212;2024-01-30T06:56:45;99439.69;;;-5.16;100.00
15674;BME280;7937;48.090;16.212;2024-01-30T06:59:47;99440.91;;;-5.22;100.00
15674;BME280;7937;48.090;16.212;2024-01-30T07:02:50;99437.78;;;-5.27;100.00
15674;BME280;7937;48.090;16.212;2024-01-30T07:05:52;99453.22;;;-5.11;100.00
15674;BME280;7937;48.090;16.212;2024-01-30T07:08:54;99455.81;;;-5.11;100.00
15674;BME280;7937;48.090;16.212;2024-01-30T07:11:56;99436.34;;;-5.18;100.00
15674;BME280;7937;48.090;16.212;2024-01-30T07:15:00;99459.47;;;-5.01;100.00
15674;BME280;7937;48.090;16.212;2024-01-30T07:18:03;99464.69;;;-4.88;100.00
15674;BME280;7937;48.090;16.212;2024-01-30T07:21:06;99462.59;;;-4.96;100.00
15674;BME280;7937;48.090;16.212;2024-01-30T07:24:08;99464.91;;;-4.78;100.00
15674;BME280;7937;48.090;16.212;2024-01-30T07:27:10;99449.25;;;-4.64;100.00
15674;BME280;7937;48.090;16.212;2024-01-30T07:30:13;99444.34;;;-4.81;100.00
15674;BME280;7937;48.090;16.212;2024-01-30T07:33:15;99461.34;;;-4.63;100.00
15674;BME280;7937;48.090;16.212;2024-01-30T07:36:17;99468.81;;;-4.71;100.00
15674;BME280;7937;48.090;16.212;2024-01-30T07:39:19;99471.47;;;-4.33;100.00
15674;BME280;7937;48.090;16.212;2024-01-30T07:42:21;99469.56;;;-4.56;100.00
15674;BME280;7937;48.090;16.212;2024-01-30T07:45:23;99466.03;;;-4.43;100.00
15674;BME280;7937;48.090;16.212;2024-01-30T07:48:27;99466.13;;;-4.44;100.00
15674;BME280;7937;48.090;16.212;2024-01-30T07:51:29;99472.81;;;-4.27;100.00
15674;BME280;7937;48.090;16.212;2024-01-30T07:54:33;99449.38;;;-4.02;100.00
15674;BME280;7937;48.090;16.212;2024-01-30T07:57:55;99464.66;;;-4.10;100.00
15674;BME280;7937;48.090;16.212;2024-01-30T08:00:58;99445.25;;;-3.80;100.00
15674;BME280;7937;48.090;16.212;2024-01-30T08:04:00;99464.25;;;-3.91;100.00
15674;BME280;7937;48.090;16.212;2024-01-30T08:07:03;99466.00;;;-4.04;100.00
15674;BME280;7937;48.090;16.212;2024-01-30T08:10:06;99477.69;;;-3.97;100.00
15674;BME280;7937;48.090;16.212;2024-01-30T08:13:08;99477.38;;;-3.93;100.00
15674;BME280;7937;48.090;16.212;2024-01-30T08:16:11;99481.84;;;-3.95;100.00
15674;BME280;7937;48.090;16.212;2024-01-30T08:19:16;99482.88;;;-3.84;100.00
15674;BME280;7937;48.090;16.212;2024-01-30T08:22:18;99491.19;;;-3.79;100.00
15674;BME280;7937;48.090;16.212;2024-01-30T08:25:20;99491.00;;;-3.76;100.00
15674;BME280;7937;48.090;16.212;2024-01-30T08:28:23;99492.00;;;-3.66;100.00
15674;BME280;7937;48.090;16.212;2024-01-30T08:31:26;99490.00;;;-3.50;100.00
15674;BME280;7937;48.090;16.212;2024-01-30T08:34:29;99483.75;;;-3.47;100.00
15674;BME280;7937;48.090;16.212;2024-01-30T08:37:31;99487.25;;;-3.35;100.00
15674;BME280;7937;48.090;16.212;2024-01-30T08:40:34;99485.31;;;-3.21;100.00
15674;BME280;7937;48.090;16.212;2024-01-30T08:43:36;99482.78;;;-3.09;100.00
15674;BME280;7937;48.090;16.212;2024-01-30T08:46:39;99486.97;;;-2.96;100.00
15674;BME280;7937;48.090;16.212;2024-01-30T08:49:41;99478.28;;;-2.83;100.00
15674;BME280;7937;48.090;16.212;2024-01-30T08:52:45;99473.34;;;-2.75;100.00
15674;BME280;7937;48.090;16.212;2024-01-30T08:55:48;99470.91;;;-2.54;100.00
15674;BME280;7937;48.090;16.212;2024-01-30T08:58:50;99480.59;;;-2.21;100.00
15674;BME280;7937;48.090;16.212;2024-01-30T09:01:53;99481.09;;;-1.94;100.00
15674;BME280;7937;48.090;16.212;2024-01-30T09:05:12;99482.50;;;-1.56;100.00
15674;BME280;7937;48.090;16.212;2024-01-30T09:08:14;99484.63;;;-1.27;100.00
15674;BME280;7937;48.090;16.212;2024-01-30T09:11:17;99489.91;;;-1.07;100.00
15674;BME280;7937;48.090;16.212;2024-01-30T09:14:19;99493.63;;;-0.77;100.00
15674;BME280;7937;48.090;16.212;2024-01-30T09:17:21;99484.38;;;-0.60;100.00
15674;BME280;7937;48.090;16.212;2024-01-30T09:20:23;99483.88;;;-0.33;100.00
15674;BME280;7937;48.090;16.212;2024-01-30T09:23:27;99488.28;;;-0.13;100.00
15674;BME280;7937;48.090;16.212;2024-01-30T09:26:29;99490.28;;;0.05;100.00
15674;BME280;7937;48.090;16.212;2024-01-30T09:29:31;99487.91;;;0.22;100.00
15674;BME280;7937;48.090;16.212;2024-01-30T09:32:36;99491.28;;;0.44;100.00
15674;BME280;7937;48.090;16.212;2024-01-30T09:35:38;99486.13;;;0.63;100.00
15674;BME280;7937;48.090;16.212;2024-01-30T09:38:40;99499.03;;;0.86;100.00
15674;BME280;7937;48.090;16.212;2024-01-30T09:41:48;99498.22;;;1.05;100.00
15674;BME280;7937;48.090;16.212;2024-01-30T09:44:51;99488.69;;;1.23;100.00
15674;BME280;7937;48.090;16.212;2024-01-30T09:47:59;99501.16;;;1.50;100.00
15674;BME280;7937;48.090;16.212;2024-01-30T09:51:02;99492.53;;;1.67;100.00
15674;BME280;7937;48.090;16.212;2024-01-30T09:54:04;99480.72;;;2.00;100.00
15674;BME280;7937;48.090;16.212;2024-01-30T09:57:06;99487.03;;;2.27;100.00
15674;BME280;7937;48.090;16.212;2024-01-30T10:00:10;99490.88;;;2.32;97.42
15674;BME280;7937;48.090;16.212;2024-01-30T10:03:12;99490.75;;;2.24;96.78
15674;BME280;7937;48.090;16.212;2024-01-30T10:06:18;99485.34;;;2.26;96.70
15674;BME280;7937;48.090;16.212;2024-01-30T10:09:22;99481.75;;;2.37;96.53
15674;BME280;7937;48.090;16.212;2024-01-30T10:12:26;99487.81;;;2.37;95.44
15674;BME280;7937;48.090;16.212;2024-01-30T10:15:28;99474.66;;;2.37;95.49
15674;BME280;7937;48.090;16.212;2024-01-30T10:18:31;99489.56;;;2.46;94.07
15674;BME280;7937;48.090;16.212;2024-01-30T10:21:33;99479.19;;;2.45;94.77
15674;BME280;7937;48.090;16.212;2024-01-30T10:24:35;99485.81;;;2.49;94.72
15674;BME280;7937;48.090;16.212;2024-01-30T10:27:39;99477.06;;;2.58;91.60
15674;BME280;7937;48.090;16.212;2024-01-30T10:30:42;99476.22;;;2.57;91.01
15674;BME280;7937;48.090;16.212;2024-01-30T10:33:44;99458.53;;;2.50;90.68
15674;BME280;7937;48.090;16.212;2024-01-30T10:36:50;99468.28;;;2.67;89.85
15674;BME280;7937;48.090;16.212;2024-01-30T10:39:56;99458.75;;;2.66;89.57
15674;BME280;7937;48.090;16.212;2024-01-30T10:43:03;99462.53;;;2.81;89.41
15674;BME280;7937;48.090;16.212;2024-01-30T10:46:19;99459.59;;;2.84;87.40
15674;BME280;7937;48.090;16.212;2024-01-30T10:49:23;99437.25;;;2.89;87.34
15674;BME280;7937;48.090;16.212;2024-01-30T10:52:26;99464.19;;;3.18;85.88
15674;BME280;7937;48.090;16.212;2024-01-30T10:55:29;99459.06;;;3.34;86.32
15674;BME280;7937;48.090;16.212;2024-01-30T10:58:33;99460.72;;;3.53;82.51
15674;BME280;7937;48.090;16.212;2024-01-30T11:01:36;99440.16;;;3.57;81.40
15674;BME280;7937;48.090;16.212;2024-01-30T11:04:40;99446.47;;;3.64;80.29
15674;BME280;7937;48.090;16.212;2024-01-30T11:07:43;99412.38;;;3.45;79.64
15674;BME280;7937;48.090;16.212;2024-01-30T11:10:47;99442.03;;;3.65;80.45
15674;BME280;7937;48.090;16.212;2024-01-30T11:13:50;99452.34;;;3.84;80.67
15674;BME280;7937;48.090;16.212;2024-01-30T11:16:52;99444.09;;;4.05;78.26
15674;BME280;7937;48.090;16.212;2024-01-30T11:19:55;99444.22;;;4.29;76.87
15674;BME280;7937;48.090;16.212;2024-01-30T11:23:01;99437.50;;;4.35;76.45
15674;BME280;7937;48.090;16.212;2024-01-30T11:26:10;99430.13;;;4.55;74.84
15674;BME280;7937;48.090;16.212;2024-01-30T11:29:13;99428.75;;;4.43;75.17
15674;BME280;7937;48.090;16.212;2024-01-30T11:32:22;99425.34;;;4.50;74.64
15674;BME280;7937;48.090;16.212;2024-01-30T11:35:30;99427.50;;;4.55;74.66
15674;BME280;7937;48.090;16.212;2024-01-30T11:38:32;99422.38;;;4.53;73.84
15674;BME280;7937;48.090;16.212;2024-01-30T11:41:36;99418.25;;;4.51;74.16
15674;BME280;7937;48.090;16.212;2024-01-30T11:44:39;99418.59;;;4.56;74.55
15674;BME280;7937;48.090;16.212;2024-01-30T11:47:41;99416.13;;;4.62;72.81
15674;BME280;7937;48.090;16.212;2024-01-30T11:50:46;99421.56;;;4.61;74.10
15674;BME280;7937;48.090;16.212;2024-01-30T11:53:51;99418.97;;;4.69;74.20
15674;BME280;7937;48.090;16.212;2024-01-30T11:56:54;99418.00;;;4.78;72.83
15674;BME280;7937;48.090;16.212;2024-01-30T11:59:56;99417.00;;;4.87;75.02
15674;BME280;7937;48.090;16.212;2024-01-30T12:02:58;99412.56;;;4.80;74.64
15674;BME280;7937;48.090;16.212;2024-01-30T12:06:03;99420.00;;;5.01;73.41
15674;BME280;7937;48.090;16.212;2024-01-30T12:09:05;99412.75;;;5.03;68.44
15674;BME280;7937;48.090;16.212;2024-01-30T12:12:10;99402.53;;;5.08;66.83
15674;BME280;7937;48.090;16.212;2024-01-30T12:15:14;99406.16;;;5.15;69.15
15674;BME280;7937;48.090;16.212;2024-01-30T12:18:18;99399.88;;;5.16;69.88
15674;BME280;7937;48.090;16.212;2024-01-30T12:21:20;99390.94;;;5.17;69.99
15674;BME280;7937;48.090;16.212;2024-01-30T12:24:23;99381.91;;;5.28;67.33
15674;BME280;7937;48.090;16.212;2024-01-30T12:27:26;99383.03;;;5.09;69.91
15674;BME280;7937;48.090;16.212;2024-01-30T12:30:28;99397.91;;;5.26;68.39
15674;BME280;7937;48.090;16.212;2024-01-30T12:33:31;99388.66;;;5.38;68.36
15674;BME280;7937;48.090;16.212;2024-01-30T12:36:34;99394.59;;;5.40;69.60
15674;BME280;7937;48.090;16.212;2024-01-30T12:39:36;99369.50;;;5.28;69.83
15674;BME280;7937;48.090;16.212;2024-01-30T12:42:39;99386.50;;;5.34;70.96
15674;BME280;7937;48.090;16.212;2024-01-30T12:45:41;99392.13;;;5.39;67.93
15674;BME280;7937;48.090;16.212;2024-01-30T12:48:44;99383.34;;;5.55;67.57
15674;BME280;7937;48.090;16.212;2024-01-30T12:51:46;99384.31;;;5.78;66.44
15674;BME280;7937;48.090;16.212;2024-01-30T12:54:49;99365.50;;;5.57;66.49
15674;BME280;7937;48.090;16.212;2024-01-30T12:57:51;99371.47;;;5.42;69.00
15674;BME280;7937;48.090;16.212;2024-01-30T13:00:54;99371.44;;;5.51;67.15
15674;BME280;7937;48.090;16.212;2024-01-30T13:03:56;99377.91;;;5.15;70.94
15674;BME280;7937;48.090;16.212;2024-01-30T13:07:00;99363.25;;;5.13;69.81
15674;BME280;7937;48.090;16.212;2024-01-30T13:10:03;99358.44;;;4.84;71.74
15674;BME280;7937;48.090;16.212;2024-01-30T13:13:06;99379.41;;;5.18;68.79
15674;BME280;7937;48.090;16.212;2024-01-30T13:16:17;99373.13;;;5.19;70.29
15674;BME280;7937;48.090;16.212;2024-01-30T13:19:19;99376.44;;;5.05;71.68
15674;BME280;7937;48.090;16.212;2024-01-30T13:22:22;99371.16;;;5.13;70.69
15674;BME280;7937;48.090;16.212;2024-01-30T13:25:24;99360.22;;;4.75;73.19
15674;BME280;7937;48.090;16.212;2024-01-30T13:28:27;99377.00;;;4.50;76.40
15674;BME280;7937;48.090;16.212;2024-01-30T13:31:29;99383.56;;;4.37;76.72
15674;BME280;7937;48.090;16.212;2024-01-30T13:34:32;99383.94;;;4.51;75.61
15674;BME280;7937;48.090;16.212;2024-01-30T13:37:34;99385.84;;;4.83;74.64
15674;BME280;7937;48.090;16.212;2024-01-30T13:40:37;99385.31;;;4.87;73.48
15674;BME280;7937;48.090;16.212;2024-01-30T13:43:39;99390.28;;;4.90;73.72
15674;BME280;7937;48.090;16.212;2024-01-30T13:46:42;99383.81;;;4.77;75.18
15674;BME280;7937;48.090;16.212;2024-01-30T13:49:45;99385.31;;;4.71;75.20
15674;BME280;7937;48.090;16.212;2024-01-30T13:52:48;99373.56;;;4.65;75.70
15674;BME280;7937;48.090;16.212;2024-01-30T13:55:50;99379.06;;;4.97;74.54
15674;BME280;7937;48.090;16.212;2024-01-30T13:58:52;99382.69;;;4.87;75.22
15674;BME280;7937;48.090;16.212;2024-01-30T14:01:55;99383.69;;;4.95;75.10
15674;BME280;7937;48.090;16.212;2024-01-30T14:04:57;99355.94;;;4.66;75.65
15674;BME280;7937;48.090;16.212;2024-01-30T14:08:00;99372.28;;;4.70;77.25
15674;BME280;7937;48.090;16.212;2024-01-30T14:11:02;99373.78;;;4.80;75.21
15674;BME280;7937;48.090;16.212;2024-01-30T14:14:05;99383.84;;;5.01;73.83
15674;BME280;7937;48.090;16.212;2024-01-30T14:17:07;99380.72;;;4.98;73.82
15674;BME280;7937;48.090;16.212;2024-01-30T14:20:09;99366.66;;;4.81;74.32
15674;BME280;7937;48.090;16.212;2024-01-30T14:23:12;99382.97;;;4.60;76.32
15674;BME280;7937;48.090;16.212;2024-01-30T14:26:14;99378.66;;;4.51;76.68
15674;BME280;7937;48.090;16.212;2024-01-30T14:29:17;99379.59;;;4.33;77.50
15674;BME280;7937;48.090;16.212;2024-01-30T14:32:19;99378.00;;;4.06;79.74
15674;BME280;7937;48.090;16.212;2024-01-30T14:35:21;99357.97;;;3.79;80.95
15674;BME280;7937;48.090;16.212;2024-01-30T14:38:24;99368.50;;;3.79;81.54
15674;BME280;7937;48.090;16.212;2024-01-30T14:41:27;99382.59;;;3.70;82.06
15674;BME280;7937;48.090;16.212;2024-01-30T14:44:30;99381.56;;;3.63;82.89
15674;BME280;7937;48.090;16.212;2024-01-30T14:51:03;99371.00;;;3.55;82.35
15674;BME280;7937;48.090;16.212;2024-01-30T14:54:05;99370.75;;;3.22;84.58
15674;BME280;7937;48.090;16.212;2024-01-30T14:57:10;99365.88;;;3.09;85.87
15674;BME280;7937;48.090;16.212;2024-01-30T15:00:12;99364.91;;;3.10;85.54
15674;BME280;7937;48.090;16.212;2024-01-30T15:03:15;99365.91;;;2.92;86.56
15674;BME280;7937;48.090;16.212;2024-01-30T15:06:21;99366.47;;;2.85;87.65
15674;BME280;7937;48.090;16.212;2024-01-30T15:09:25;99364.53;;;2.70;87.90
15674;BME280;7937;48.090;16.212;2024-01-30T15:12:31;99373.63;;;2.75;87.30
15674;BME280;7937;48.090;16.212;2024-01-30T15:15:33;99382.19;;;2.42;87.84
15674;BME280;7937;48.090;16.212;2024-01-30T15:18:36;99372.34;;;2.16;88.29
15674;BME280;7937;48.090;16.212;2024-01-30T15:21:38;99373.16;;;1.89;90.09
15674;BME280;7937;48.090;16.212;2024-01-30T15:24:40;99375.41;;;1.84;91.12
15674;BME280;7937;48.090;16.212;2024-01-30T15:27:43;99377.28;;;1.54;92.43
15674;BME280;7937;48.090;16.212;2024-01-30T15:30:45;99373.31;;;1.31;94.05
15674;BME280;7937;48.090;16.212;2024-01-30T15:33:48;99381.53;;;1.09;95.37
15674;BME280;7937;48.090;16.212;2024-01-30T15:36:51;99383.19;;;0.90;96.66
15674;BME280;7937;48.090;16.212;2024-01-30T15:39:53;99388.41;;;0.71;97.50
15674;BME280;7937;48.090;16.212;2024-01-30T15:42:55;99372.81;;;0.60;98.19
15674;BME280;7937;48.090;16.212;2024-01-30T15:46:03;99378.72;;;0.42;100.00
15674;BME280;7937;48.090;16.212;2024-01-30T15:49:28;99387.09;;;0.27;100.00
15674;BME280;7937;48.090;16.212;2024-01-30T15:52:31;99387.09;;;0.27;100.00
15674;BME280;7937;48.090;16.212;2024-01-30T15:55:33;99378.13;;;-0.11;100.00
15674;BME280;7937;48.090;16.212;2024-01-30T15:58:36;99386.53;;;-0.17;100.00
15674;BME280;7937;48.090;16.212;2024-01-30T16:01:39;99380.03;;;-0.23;100.00
15674;BME280;7937;48.090;16.212;2024-01-30T16:04:42;99386.81;;;-0.41;100.00
15674;BME280;7937;48.090;16.212;2024-01-30T16:07:45;99386.88;;;-0.32;100.00
15674;BME280;7937;48.090;16.212;2024-01-30T16:10:47;99393.72;;;-0.61;100.00